Aviation Digital Data Service (ADDS)

Output produced by METARs form (1827 UTC 16 August 2018)
found at http://www.aviationweather.gov/adds/metars/
 
KJAC 161720Z 1618/1718 00000KT P6SM SKC 
     FM162000 29009KT P6SM SCT130 BKN200 
     FM170200 01006KT P6SM SCT120 
     FM171600 20006KT P6SM SKC AMD LTD TO CLD VIS AND WIND
       
KJAN 161759Z 1618/1718 19006KT P6SM VCTS SCT035 BKN050CB 
     FM170000 17005KT P6SM FEW050 SCT250
       
KJAX 161720Z 1618/1718 15008KT P6SM VCTS SCT035CB BKN070 
     FM170100 VRB03KT P6SM SCT150 BKN250
       
KJBR 161739Z 1618/1718 20010KT P6SM SCT050 BKN250 
     FM170100 22005KT P6SM VCSH SCT050 BKN250 
     FM170800 22005KT P6SM VCTS BKN040CB BKN100 
     FM171200 22005KT P6SM VCSH SCT040 BKN100 
     FM171500 22009KT P6SM SCT050 BKN100
       
KJFK 161722Z 1618/1724 23011KT P6SM FEW050 SCT200 
     FM162100 19014KT P6SM FEW050 SCT200 
     FM170100 21009KT P6SM FEW050 SCT200 
     FM170400 24005KT P6SM FEW050 SCT200 
     FM171300 20009KT P6SM FEW050 SCT150 
     FM171500 19012KT P6SM FEW050 SCT150 SCT250 
     FM171800 18016KT P6SM SCT050 SCT150 BKN250
       
KJER 161736Z 1618/1718 VRB06KT P6SM BKN200 
     FM162200 25006KT P6SM VCSH BKN120 
     TEMPO 1622/1702 21015G25KT 
     FM170300 14015G22KT P6SM BKN100
       
KJHW 161735Z 1618/1718 21007KT P6SM OVC035 
     FM161900 22008KT P6SM VCTS OVC035CB 
     FM170200 18007KT 6SM -SHRA VCTS OVC035CB 
     FM170800 19010KT P6SM OVC012 
     FM171500 21010KT P6SM VCSH OVC015
       
KJMS 161731Z 1618/1718 VRB04KT P6SM SKC
       
KJST 161804Z 1618/1718 22006KT P6SM SCT050 BKN100 BKN250 
     FM162200 19006KT P6SM VCTS SCT025 BKN040CB 
     FM170200 18004KT P6SM BKN050 OVC100 
     FM170600 19005KT 4SM -SHRA BR OVC050